sensor_id;sensor_type;location;lat;lon;timestamp;P1;durP1;ratioP1;P2;durP2;ratioP2
51578;SDS011;47998;53.242;6.386;2024-03-23T00:56:17;42.50;;;10.32;;
51578;SDS011;47998;53.242;6.386;2024-03-23T00:58:43;47.53;;;8.80;;
51578;SDS011;47998;53.242;6.386;2024-03-23T01:01:08;40.17;;;8.60;;
51578;SDS011;47998;53.242;6.386;2024-03-23T01:03:34;41.22;;;9.43;;
51578;SDS011;47998;53.242;6.386;2024-03-23T01:06:00;42.95;;;9.48;;
51578;SDS011;47998;53.242;6.386;2024-03-23T01:08:26;40.92;;;9.88;;
51578;SDS011;47998;53.242;6.386;2024-03-23T01:10:58;45.42;;;9.32;;
51578;SDS011;47998;53.242;6.386;2024-03-23T01:15:51;37.67;;;8.60;;
51578;SDS011;47998;53.242;6.386;2024-03-23T01:18:18;35.60;;;7.45;;
51578;SDS011;47998;53.242;6.386;2024-03-23T01:20:44;49.97;;;8.88;;
51578;SDS011;47998;53.242;6.386;2024-03-23T01:23:10;37.88;;;9.40;;
51578;SDS011;47998;53.242;6.386;2024-03-23T01:25:36;45.97;;;9.07;;
51578;SDS011;47998;53.242;6.386;2024-03-23T01:28:02;46.83;;;8.48;;
51578;SDS011;47998;53.242;6.386;2024-03-23T01:30:28;35.20;;;8.52;;
51578;SDS011;47998;53.242;6.386;2024-03-23T01:32:54;43.78;;;7.78;;
51578;SDS011;47998;53.242;6.386;2024-03-23T01:35:19;37.85;;;8.48;;
51578;SDS011;47998;53.242;6.386;2024-03-23T01:37:45;40.65;;;9.07;;
51578;SDS011;47998;53.242;6.386;2024-03-23T01:40:11;49.85;;;10.25;;
51578;SDS011;47998;53.242;6.386;2024-03-23T01:42:38;39.33;;;8.60;;
51578;SDS011;47998;53.242;6.386;2024-03-23T01:45:06;40.92;;;7.53;;
51578;SDS011;47998;53.242;6.386;2024-03-23T01:47:33;26.25;;;7.45;;
51578;SDS011;47998;53.242;6.386;2024-03-23T01:49:59;36.47;;;8.45;;
51578;SDS011;47998;53.242;6.386;2024-03-23T01:52:25;36.78;;;7.38;;
51578;SDS011;47998;53.242;6.386;2024-03-23T01:54:52;40.60;;;8.00;;
51578;SDS011;47998;53.242;6.386;2024-03-23T01:57:18;44.13;;;8.77;;
51578;SDS011;47998;53.242;6.386;2024-03-23T01:59:47;45.47;;;8.77;;
51578;SDS011;47998;53.242;6.386;2024-03-23T02:02:13;55.38;;;8.43;;
51578;SDS011;47998;53.242;6.386;2024-03-23T02:04:39;28.92;;;7.55;;
51578;SDS011;47998;53.242;6.386;2024-03-23T02:07:06;37.70;;;8.45;;
51578;SDS011;47998;53.242;6.386;2024-03-23T02:09:32;29.98;;;8.02;;
51578;SDS011;47998;53.242;6.386;2024-03-23T02:11:58;41.28;;;8.23;;
51578;SDS011;47998;53.242;6.386;2024-03-23T02:14:23;41.25;;;7.05;;
51578;SDS011;47998;53.242;6.386;2024-03-23T02:16:49;32.78;;;6.75;;
51578;SDS011;47998;53.242;6.386;2024-03-23T02:19:15;31.50;;;5.90;;
51578;SDS011;47998;53.242;6.386;2024-03-23T02:21:40;35.25;;;6.53;;
51578;SDS011;47998;53.242;6.386;2024-03-23T02:24:06;37.42;;;8.20;;
51578;SDS011;47998;53.242;6.386;2024-03-23T02:26:32;31.33;;;5.53;;
51578;SDS011;47998;53.242;6.386;2024-03-23T02:28:57;39.78;;;7.18;;
51578;SDS011;47998;53.242;6.386;2024-03-23T02:31:23;33.72;;;6.28;;
51578;SDS011;47998;53.242;6.386;2024-03-23T02:33:49;40.22;;;6.82;;
51578;SDS011;47998;53.242;6.386;2024-03-23T02:36:14;34.63;;;6.72;;
51578;SDS011;47998;53.242;6.386;2024-03-23T02:38:40;30.38;;;6.00;;
51578;SDS011;47998;53.242;6.386;2024-03-23T02:41:06;28.73;;;5.53;;
51578;SDS011;47998;53.242;6.386;2024-03-23T02:43:31;28.52;;;5.78;;
51578;SDS011;47998;53.242;6.386;2024-03-23T02:45:57;32.25;;;7.07;;
51578;SDS011;47998;53.242;6.386;2024-03-23T02:48:23;28.20;;;5.57;;
51578;SDS011;47998;53.242;6.386;2024-03-23T02:50:49;30.30;;;5.32;;
51578;SDS011;47998;53.242;6.386;2024-03-23T02:53:15;24.58;;;5.53;;
51578;SDS011;47998;53.242;6.386;2024-03-23T02:55:41;25.77;;;4.40;;
51578;SDS011;47998;53.242;6.386;2024-03-23T02:58:07;38.30;;;5.35;;
51578;SDS011;47998;53.242;6.386;2024-03-23T03:00:32;23.13;;;4.25;;
51578;SDS011;47998;53.242;6.386;2024-03-23T03:02:58;30.15;;;5.10;;
51578;SDS011;47998;53.242;6.386;2024-03-23T03:05:23;25.55;;;4.68;;
51578;SDS011;47998;53.242;6.386;2024-03-23T03:07:50;23.40;;;4.10;;
51578;SDS011;47998;53.242;6.386;2024-03-23T03:10:15;24.45;;;5.68;;
51578;SDS011;47998;53.242;6.386;2024-03-23T03:12:41;18.52;;;3.80;;
51578;SDS011;47998;53.242;6.386;2024-03-23T03:15:07;23.15;;;4.47;;
51578;SDS011;47998;53.242;6.386;2024-03-23T03:17:34;26.30;;;5.55;;
51578;SDS011;47998;53.242;6.386;2024-03-23T03:20:00;35.92;;;5.45;;
51578;SDS011;47998;53.242;6.386;2024-03-23T03:22:25;27.13;;;4.10;;
51578;SDS011;47998;53.242;6.386;2024-03-23T03:24:51;22.85;;;4.97;;
51578;SDS011;47998;53.242;6.386;2024-03-23T03:27:17;27.63;;;4.60;;
51578;SDS011;47998;53.242;6.386;2024-03-23T03:29:42;23.88;;;5.30;;
51578;SDS011;47998;53.242;6.386;2024-03-23T03:32:08;25.70;;;5.85;;
51578;SDS011;47998;53.242;6.386;2024-03-23T03:34:34;24.88;;;3.80;;
51578;SDS011;47998;53.242;6.386;2024-03-23T03:36:59;23.08;;;3.70;;
51578;SDS011;47998;53.242;6.386;2024-03-23T03:39:25;20.08;;;3.97;;
51578;SDS011;47998;53.242;6.386;2024-03-23T03:41:51;23.30;;;4.53;;
51578;SDS011;47998;53.242;6.386;2024-03-23T03:44:17;23.25;;;4.18;;
51578;SDS011;47998;53.242;6.386;2024-03-23T03:46:42;21.85;;;4.40;;
51578;SDS011;47998;53.242;6.386;2024-03-23T03:49:08;28.02;;;5.03;;
51578;SDS011;47998;53.242;6.386;2024-03-23T03:51:34;27.52;;;4.75;;
51578;SDS011;47998;53.242;6.386;2024-03-23T03:54:00;25.27;;;4.65;;
51578;SDS011;47998;53.242;6.386;2024-03-23T03:56:26;28.67;;;3.92;;
51578;SDS011;47998;53.242;6.386;2024-03-23T03:58:52;25.13;;;5.03;;
51578;SDS011;47998;53.242;6.386;2024-03-23T04:01:17;21.88;;;4.13;;
51578;SDS011;47998;53.242;6.386;2024-03-23T04:03:43;27.23;;;4.28;;
51578;SDS011;47998;53.242;6.386;2024-03-23T04:06:09;28.92;;;4.35;;
51578;SDS011;47998;53.242;6.386;2024-03-23T04:08:35;15.43;;;4.13;;
51578;SDS011;47998;53.242;6.386;2024-03-23T04:11:01;36.17;;;5.75;;
51578;SDS011;47998;53.242;6.386;2024-03-23T04:13:27;31.85;;;4.70;;
51578;SDS011;47998;53.242;6.386;2024-03-23T04:15:56;22.35;;;4.65;;
51578;SDS011;47998;53.242;6.386;2024-03-23T04:18:22;21.63;;;4.45;;
51578;SDS011;47998;53.242;6.386;2024-03-23T04:20:50;19.30;;;4.28;;
51578;SDS011;47998;53.242;6.386;2024-03-23T04:23:17;20.88;;;3.90;;
51578;SDS011;47998;53.242;6.386;2024-03-23T04:25:43;24.42;;;4.78;;
51578;SDS011;47998;53.242;6.386;2024-03-23T04:28:08;21.20;;;4.28;;
51578;SDS011;47998;53.242;6.386;2024-03-23T04:30:34;25.85;;;4.10;;
51578;SDS011;47998;53.242;6.386;2024-03-23T04:33:00;32.13;;;4.05;;
51578;SDS011;47998;53.242;6.386;2024-03-23T04:35:26;19.92;;;4.20;;
51578;SDS011;47998;53.242;6.386;2024-03-23T04:37:52;24.25;;;4.78;;
51578;SDS011;47998;53.242;6.386;2024-03-23T04:40:18;22.02;;;4.63;;
51578;SDS011;47998;53.242;6.386;2024-03-23T04:42:44;17.08;;;3.53;;
51578;SDS011;47998;53.242;6.386;2024-03-23T04:45:10;24.90;;;3.78;;
51578;SDS011;47998;53.242;6.386;2024-03-23T04:47:36;25.88;;;4.65;;
51578;SDS011;47998;53.242;6.386;2024-03-23T04:50:03;16.15;;;2.90;;
51578;SDS011;47998;53.242;6.386;2024-03-23T04:52:30;21.55;;;3.75;;
51578;SDS011;47998;53.242;6.386;2024-03-23T04:54:56;29.40;;;4.10;;
51578;SDS011;47998;53.242;6.386;2024-03-23T04:57:22;20.55;;;3.63;;
51578;SDS011;47998;53.242;6.386;2024-03-23T04:59:48;19.85;;;3.45;;
51578;SDS011;47998;53.242;6.386;2024-03-23T05:02:14;22.83;;;3.88;;
51578;SDS011;47998;53.242;6.386;2024-03-23T05:04:40;21.05;;;3.80;;
51578;SDS011;47998;53.242;6.386;2024-03-23T05:07:06;20.77;;;4.90;;
51578;SDS011;47998;53.242;6.386;2024-03-23T05:09:32;22.85;;;3.40;;
51578;SDS011;47998;53.242;6.386;2024-03-23T05:11:58;21.08;;;4.65;;
51578;SDS011;47998;53.242;6.386;2024-03-23T05:14:27;20.27;;;3.75;;
51578;SDS011;47998;53.242;6.386;2024-03-23T05:16:53;18.25;;;3.55;;
51578;SDS011;47998;53.242;6.386;2024-03-23T05:19:19;26.55;;;5.45;;
51578;SDS011;47998;53.242;6.386;2024-03-23T05:21:45;26.58;;;5.22;;
51578;SDS011;47998;53.242;6.386;2024-03-23T05:24:11;22.83;;;3.42;;
51578;SDS011;47998;53.242;6.386;2024-03-23T05:26:37;25.52;;;4.00;;
51578;SDS011;47998;53.242;6.386;2024-03-23T05:29:03;21.42;;;2.55;;
51578;SDS011;47998;53.242;6.386;2024-03-23T05:31:31;21.77;;;4.15;;
51578;SDS011;47998;53.242;6.386;2024-03-23T05:33:56;23.58;;;3.78;;
51578;SDS011;47998;53.242;6.386;2024-03-23T05:36:22;25.20;;;3.60;;
51578;SDS011;47998;53.242;6.386;2024-03-23T05:38:51;17.05;;;2.20;;
51578;SDS011;47998;53.242;6.386;2024-03-23T05:41:17;16.15;;;3.15;;
51578;SDS011;47998;53.242;6.386;2024-03-23T05:43:43;16.83;;;2.63;;
51578;SDS011;47998;53.242;6.386;2024-03-23T05:46:08;21.98;;;2.95;;
51578;SDS011;47998;53.242;6.386;2024-03-23T05:48:34;21.25;;;2.60;;
51578;SDS011;47998;53.242;6.386;2024-03-23T05:51:03;17.52;;;3.38;;
51578;SDS011;47998;53.242;6.386;2024-03-23T05:53:29;18.27;;;2.60;;
51578;SDS011;47998;53.242;6.386;2024-03-23T05:56:02;17.60;;;2.45;;
51578;SDS011;47998;53.242;6.386;2024-03-23T05:58:32;19.23;;;3.00;;
51578;SDS011;47998;53.242;6.386;2024-03-23T06:00:58;21.17;;;3.22;;
51578;SDS011;47998;53.242;6.386;2024-03-23T06:03:28;14.40;;;2.40;;
51578;SDS011;47998;53.242;6.386;2024-03-23T06:05:54;14.00;;;2.83;;
51578;SDS011;47998;53.242;6.386;2024-03-23T06:08:20;15.27;;;2.63;;
51578;SDS011;47998;53.242;6.386;2024-03-23T06:10:47;19.73;;;2.78;;
51578;SDS011;47998;53.242;6.386;2024-03-23T06:13:13;18.08;;;2.65;;
51578;SDS011;47998;53.242;6.386;2024-03-23T06:15:39;12.55;;;2.03;;
51578;SDS011;47998;53.242;6.386;2024-03-23T06:18:05;17.08;;;2.13;;
51578;SDS011;47998;53.242;6.386;2024-03-23T06:20:32;13.43;;;2.83;;
51578;SDS011;47998;53.242;6.386;2024-03-23T06:22:58;14.90;;;3.35;;
51578;SDS011;47998;53.242;6.386;2024-03-23T06:25:25;15.25;;;2.28;;
51578;SDS011;47998;53.242;6.386;2024-03-23T06:27:50;12.30;;;2.03;;
51578;SDS011;47998;53.242;6.386;2024-03-23T06:30:16;18.63;;;2.00;;
51578;SDS011;47998;53.242;6.386;2024-03-23T06:32:42;14.52;;;3.08;;
51578;SDS011;47998;53.242;6.386;2024-03-23T06:35:07;13.35;;;2.67;;
51578;SDS011;47998;53.242;6.386;2024-03-23T06:37:35;14.82;;;2.38;;
51578;SDS011;47998;53.242;6.386;2024-03-23T06:40:01;12.25;;;2.30;;
51578;SDS011;47998;53.242;6.386;2024-03-23T06:42:27;17.65;;;2.35;;
51578;SDS011;47998;53.242;6.386;2024-03-23T06:44:53;10.52;;;2.33;;
51578;SDS011;47998;53.242;6.386;2024-03-23T06:47:19;28.40;;;2.95;;
51578;SDS011;47998;53.242;6.386;2024-03-23T06:49:44;15.13;;;2.00;;
51578;SDS011;47998;53.242;6.386;2024-03-23T06:52:10;9.75;;;1.70;;
51578;SDS011;47998;53.242;6.386;2024-03-23T06:54:36;8.07;;;2.00;;
51578;SDS011;47998;53.242;6.386;2024-03-23T06:57:01;15.40;;;2.55;;
51578;SDS011;47998;53.242;6.386;2024-03-23T06:59:28;15.88;;;2.13;;
51578;SDS011;47998;53.242;6.386;2024-03-23T07:01:53;12.38;;;2.25;;
51578;SDS011;47998;53.242;6.386;2024-03-23T07:04:19;18.10;;;2.92;;
51578;SDS011;47998;53.242;6.386;2024-03-23T07:06:45;11.40;;;1.92;;
51578;SDS011;47998;53.242;6.386;2024-03-23T07:09:11;12.00;;;2.15;;
51578;SDS011;47998;53.242;6.386;2024-03-23T07:11:37;14.02;;;2.75;;
51578;SDS011;47998;53.242;6.386;2024-03-23T07:14:03;10.18;;;2.85;;
51578;SDS011;47998;53.242;6.386;2024-03-23T07:16:29;15.00;;;3.30;;
51578;SDS011;47998;53.242;6.386;2024-03-23T07:18:55;19.40;;;2.60;;
51578;SDS011;47998;53.242;6.386;2024-03-23T07:21:20;11.88;;;2.40;;
51578;SDS011;47998;53.242;6.386;2024-03-23T07:23:47;10.45;;;2.30;;
51578;SDS011;47998;53.242;6.386;2024-03-23T07:26:13;13.82;;;2.65;;
51578;SDS011;47998;53.242;6.386;2024-03-23T07:28:38;6.57;;;1.52;;
51578;SDS011;47998;53.242;6.386;2024-03-23T07:31:12;10.32;;;1.83;;
51578;SDS011;47998;53.242;6.386;2024-03-23T07:33:43;7.30;;;1.80;;
51578;SDS011;47998;53.242;6.386;2024-03-23T07:36:11;7.18;;;1.60;;
51578;SDS011;47998;53.242;6.386;2024-03-23T07:38:37;7.35;;;1.23;;
51578;SDS011;47998;53.242;6.386;2024-03-23T07:41:05;10.07;;;2.08;;
51578;SDS011;47998;53.242;6.386;2024-03-23T07:43:32;9.02;;;2.30;;
51578;SDS011;47998;53.242;6.386;2024-03-23T07:45:58;6.35;;;0.90;;
51578;SDS011;47998;53.242;6.386;2024-03-23T07:48:24;12.05;;;2.13;;
51578;SDS011;47998;53.242;6.386;2024-03-23T07:53:29;4.78;;;1.33;;
51578;SDS011;47998;53.242;6.386;2024-03-23T07:55:56;5.47;;;1.63;;
51578;SDS011;47998;53.242;6.386;2024-03-23T07:58:35;6.38;;;1.25;;
51578;SDS011;47998;53.242;6.386;2024-03-23T08:01:19;8.75;;;1.27;;
51578;SDS011;47998;53.242;6.386;2024-03-23T08:03:45;8.05;;;1.13;;
51578;SDS011;47998;53.242;6.386;2024-03-23T08:06:17;5.97;;;0.73;;
51578;SDS011;47998;53.242;6.386;2024-03-23T08:08:57;6.07;;;0.98;;
51578;SDS011;47998;53.242;6.386;2024-03-23T08:11:26;12.70;;;1.88;;
51578;SDS011;47998;53.242;6.386;2024-03-23T08:13:52;8.80;;;1.48;;
51578;SDS011;47998;53.242;6.386;2024-03-23T08:16:18;9.13;;;2.05;;
51578;SDS011;47998;53.242;6.386;2024-03-23T08:18:44;7.13;;;1.42;;
51578;SDS011;47998;53.242;6.386;2024-03-23T08:21:10;8.02;;;1.83;;
51578;SDS011;47998;53.242;6.386;2024-03-23T08:23:36;13.13;;;2.67;;
51578;SDS011;47998;53.242;6.386;2024-03-23T08:26:09;15.00;;;2.58;;
51578;SDS011;47998;53.242;6.386;2024-03-23T08:28:36;8.68;;;1.85;;
51578;SDS011;47998;53.242;6.386;2024-03-23T08:31:12;9.05;;;1.77;;
51578;SDS011;47998;53.242;6.386;2024-03-23T08:33:39;10.40;;;1.92;;
51578;SDS011;47998;53.242;6.386;2024-03-23T08:36:08;14.65;;;1.77;;
51578;SDS011;47998;53.242;6.386;2024-03-23T08:38:37;10.27;;;2.70;;
51578;SDS011;47998;53.242;6.386;2024-03-23T08:41:10;10.88;;;2.03;;
51578;SDS011;47998;53.242;6.386;2024-03-23T08:48:40;15.73;;;3.13;;
51578;SDS011;47998;53.242;6.386;2024-03-23T08:51:11;13.88;;;2.22;;
51578;SDS011;47998;53.242;6.386;2024-03-23T08:53:38;13.25;;;2.50;;
51578;SDS011;47998;53.242;6.386;2024-03-23T08:56:07;18.08;;;3.85;;
51578;SDS011;47998;53.242;6.386;2024-03-23T08:58:35;21.67;;;2.60;;
51578;SDS011;47998;53.242;6.386;2024-03-23T09:01:08;5.57;;;1.70;;
51578;SDS011;47998;53.242;6.386;2024-03-23T09:03:40;11.15;;;1.65;;
51578;SDS011;47998;53.242;6.386;2024-03-23T09:06:11;12.68;;;2.30;;
51578;SDS011;47998;53.242;6.386;2024-03-23T09:08:38;14.45;;;2.10;;
51578;SDS011;47998;53.242;6.386;2024-03-23T09:11:06;8.68;;;2.03;;
51578;SDS011;47998;53.242;6.386;2024-03-23T09:13:34;10.85;;;1.63;;
51578;SDS011;47998;53.242;6.386;2024-03-23T09:16:01;13.38;;;1.48;;
51578;SDS011;47998;53.242;6.386;2024-03-23T09:18:28;12.43;;;1.95;;
51578;SDS011;47998;53.242;6.386;2024-03-23T09:20:55;10.57;;;1.42;;
51578;SDS011;47998;53.242;6.386;2024-03-23T09:23:22;8.45;;;1.45;;
51578;SDS011;47998;53.242;6.386;2024-03-23T09:25:47;10.10;;;1.95;;
51578;SDS011;47998;53.242;6.386;2024-03-23T09:28:13;6.00;;;1.40;;
51578;SDS011;47998;53.242;6.386;2024-03-23T09:30:39;15.38;;;2.10;;
51578;SDS011;47998;53.242;6.386;2024-03-23T09:33:07;9.85;;;1.80;;
51578;SDS011;47998;53.242;6.386;2024-03-23T09:35:40;11.68;;;1.42;;
51578;SDS011;47998;53.242;6.386;2024-03-23T09:38:09;6.80;;;1.15;;
51578;SDS011;47998;53.242;6.386;2024-03-23T09:40:41;13.20;;;2.97;;
51578;SDS011;47998;53.242;6.386;2024-03-23T09:43:07;6.97;;;1.45;;
51578;SDS011;47998;53.242;6.386;2024-03-23T09:45:36;6.93;;;0.85;;
51578;SDS011;47998;53.242;6.386;2024-03-23T09:48:09;11.57;;;1.92;;
51578;SDS011;47998;53.242;6.386;2024-03-23T09:50:38;5.15;;;1.30;;
51578;SDS011;47998;53.242;6.386;2024-03-23T09:53:13;4.35;;;0.70;;
51578;SDS011;47998;53.242;6.386;2024-03-23T09:55:40;5.38;;;0.77;;
51578;SDS011;47998;53.242;6.386;2024-03-23T09:58:07;6.78;;;1.25;;
51578;SDS011;47998;53.242;6.386;2024-03-23T10:00:37;3.70;;;0.60;;
51578;SDS011;47998;53.242;6.386;2024-03-23T10:03:03;9.73;;;1.10;;
51578;SDS011;47998;53.242;6.386;2024-03-23T10:05:31;9.63;;;0.90;;
51578;SDS011;47998;53.242;6.386;2024-03-23T10:07:59;8.20;;;2.00;;
51578;SDS011;47998;53.242;6.386;2024-03-23T10:10:42;8.15;;;1.63;;
51578;SDS011;47998;53.242;6.386;2024-03-23T10:13:08;6.57;;;1.67;;
51578;SDS011;47998;53.242;6.386;2024-03-23T10:15:35;14.07;;;2.53;;
51578;SDS011;47998;53.242;6.386;2024-03-23T10:18:19;7.38;;;1.63;;
51578;SDS011;47998;53.242;6.386;2024-03-23T10:20:52;7.35;;;1.45;;
51578;SDS011;47998;53.242;6.386;2024-03-23T10:23:39;7.40;;;1.42;;
51578;SDS011;47998;53.242;6.386;2024-03-23T10:28:51;13.38;;;2.42;;
51578;SDS011;47998;53.242;6.386;2024-03-23T10:31:23;9.13;;;1.90;;
51578;SDS011;47998;53.242;6.386;2024-03-23T10:33:49;8.52;;;1.98;;
51578;SDS011;47998;53.242;6.386;2024-03-23T10:36:15;12.68;;;2.10;;
51578;SDS011;47998;53.242;6.386;2024-03-23T10:38:42;6.82;;;1.35;;
51578;SDS011;47998;53.242;6.386;2024-03-23T10:41:09;5.28;;;0.93;;
51578;SDS011;47998;53.242;6.386;2024-03-23T10:43:37;5.78;;;1.67;;
51578;SDS011;47998;53.242;6.386;2024-03-23T10:46:04;8.93;;;1.77;;
51578;SDS011;47998;53.242;6.386;2024-03-23T10:48:33;6.88;;;0.85;;
51578;SDS011;47998;53.242;6.386;2024-03-23T10:50:59;4.97;;;0.52;;
51578;SDS011;47998;53.242;6.386;2024-03-23T10:53:25;7.55;;;1.70;;
51578;SDS011;47998;53.242;6.386;2024-03-23T10:55:52;6.32;;;2.00;;
51578;SDS011;47998;53.242;6.386;2024-03-23T10:58:21;8.90;;;1.50;;
51578;SDS011;47998;53.242;6.386;2024-03-23T11:00:52;7.57;;;1.40;;
51578;SDS011;47998;53.242;6.386;2024-03-23T11:03:32;10.80;;;1.63;;
51578;SDS011;47998;53.242;6.386;2024-03-23T11:05:59;13.35;;;2.55;;
51578;SDS011;47998;53.242;6.386;2024-03-23T11:08:31;9.55;;;2.25;;
51578;SDS011;47998;53.242;6.386;2024-03-23T11:13:49;8.90;;;1.90;;
51578;SDS011;47998;53.242;6.386;2024-03-23T11:16:22;8.93;;;1.30;;
51578;SDS011;47998;53.242;6.386;2024-03-23T11:18:50;5.30;;;1.10;;
51578;SDS011;47998;53.242;6.386;2024-03-23T11:24:20;10.10;;;1.92;;
51578;SDS011;47998;53.242;6.386;2024-03-23T11:26:47;14.13;;;2.60;;
51578;SDS011;47998;53.242;6.386;2024-03-23T11:29:17;12.10;;;2.08;;
51578;SDS011;47998;53.242;6.386;2024-03-23T11:31:49;13.93;;;1.23;;
51578;SDS011;47998;53.242;6.386;2024-03-23T11:34:21;7.68;;;2.13;;
51578;SDS011;47998;53.242;6.386;2024-03-23T11:36:47;8.98;;;1.95;;
51578;SDS011;47998;53.242;6.386;2024-03-23T11:39:16;10.13;;;1.63;;
51578;SDS011;47998;53.242;6.386;2024-03-23T11:41:49;14.48;;;2.15;;
51578;SDS011;47998;53.242;6.386;2024-03-23T11:44:19;13.23;;;2.00;;
51578;SDS011;47998;53.242;6.386;2024-03-23T11:46:46;10.68;;;1.67;;
51578;SDS011;47998;53.242;6.386;2024-03-23T11:49:25;10.57;;;1.70;;
51578;SDS011;47998;53.242;6.386;2024-03-23T11:51:53;13.32;;;2.25;;
51578;SDS011;47998;53.242;6.386;2024-03-23T11:54:20;9.48;;;1.83;;
51578;SDS011;47998;53.242;6.386;2024-03-23T11:59:38;10.40;;;1.77;;
51578;SDS011;47998;53.242;6.386;2024-03-23T12:02:09;9.18;;;1.95;;
51578;SDS011;47998;53.242;6.386;2024-03-23T12:04:43;7.72;;;1.88;;
51578;SDS011;47998;53.242;6.386;2024-03-23T12:07:18;6.18;;;1.42;;
51578;SDS011;47998;53.242;6.386;2024-03-23T12:09:45;11.57;;;1.58;;
51578;SDS011;47998;53.242;6.386;2024-03-23T12:12:15;5.53;;;0.88;;
51578;SDS011;47998;53.242;6.386;2024-03-23T12:14:45;5.50;;;0.90;;
51578;SDS011;47998;53.242;6.386;2024-03-23T12:17:31;13.13;;;2.22;;
51578;SDS011;47998;53.242;6.386;2024-03-23T12:19:57;14.60;;;2.20;;
51578;SDS011;47998;53.242;6.386;2024-03-23T12:22:23;14.00;;;1.67;;
51578;SDS011;47998;53.242;6.386;2024-03-23T12:24:50;8.15;;;2.13;;
51578;SDS011;47998;53.242;6.386;2024-03-23T12:27:15;10.55;;;1.35;;
51578;SDS011;47998;53.242;6.386;2024-03-23T12:29:41;8.27;;;1.45;;
51578;SDS011;47998;53.242;6.386;2024-03-23T12:32:10;10.95;;;1.90;;
51578;SDS011;47998;53.242;6.386;2024-03-23T12:34:37;9.73;;;1.50;;
51578;SDS011;47998;53.242;6.386;2024-03-23T12:37:03;8.52;;;1.75;;
51578;SDS011;47998;53.242;6.386;2024-03-23T12:39:28;16.70;;;2.42;;
51578;SDS011;47998;53.242;6.386;2024-03-23T12:41:55;7.25;;;1.48;;
51578;SDS011;47998;53.242;6.386;2024-03-23T12:44:21;9.10;;;2.42;;
51578;SDS011;47998;53.242;6.386;2024-03-23T12:46:46;7.05;;;0.95;;
51578;SDS011;47998;53.242;6.386;2024-03-23T12:49:12;9.88;;;1.20;;
51578;SDS011;47998;53.242;6.386;2024-03-23T12:51:38;8.15;;;1.77;;
51578;SDS011;47998;53.242;6.386;2024-03-23T12:54:04;8.68;;;1.77;;
51578;SDS011;47998;53.242;6.386;2024-03-23T12:56:30;9.35;;;1.15;;
51578;SDS011;47998;53.242;6.386;2024-03-23T12:58:56;7.68;;;1.38;;
51578;SDS011;47998;53.242;6.386;2024-03-23T13:01:22;6.22;;;1.20;;
51578;SDS011;47998;53.242;6.386;2024-03-23T13:03:49;14.45;;;2.20;;
51578;SDS011;47998;53.242;6.386;2024-03-23T13:06:18;3.28;;;1.27;;
51578;SDS011;47998;53.242;6.386;2024-03-23T13:08:47;12.38;;;1.98;;
51578;SDS011;47998;53.242;6.386;2024-03-23T13:11:15;9.45;;;1.90;;
51578;SDS011;47998;53.242;6.386;2024-03-23T13:13:40;8.20;;;1.33;;
51578;SDS011;47998;53.242;6.386;2024-03-23T13:16:09;11.52;;;2.45;;
51578;SDS011;47998;53.242;6.386;2024-03-23T13:18:35;8.85;;;2.10;;
51578;SDS011;47998;53.242;6.386;2024-03-23T13:21:01;14.18;;;2.05;;
51578;SDS011;47998;53.242;6.386;2024-03-23T13:23:27;7.97;;;1.40;;
51578;SDS011;47998;53.242;6.386;2024-03-23T13:25:54;12.88;;;2.40;;
51578;SDS011;47998;53.242;6.386;2024-03-23T13:28:24;4.95;;;1.48;;
51578;SDS011;47998;53.242;6.386;2024-03-23T13:30:53;5.75;;;1.25;;
51578;SDS011;47998;53.242;6.386;2024-03-23T13:33:19;4.15;;;1.25;;
51578;SDS011;47998;53.242;6.386;2024-03-23T13:35:51;7.13;;;0.90;;
51578;SDS011;47998;53.242;6.386;2024-03-23T13:38:21;8.73;;;1.42;;
51578;SDS011;47998;53.242;6.386;2024-03-23T13:40:57;10.10;;;2.00;;
51578;SDS011;47998;53.242;6.386;2024-03-23T13:43:24;5.88;;;1.40;;
51578;SDS011;47998;53.242;6.386;2024-03-23T13:45:55;8.68;;;1.55;;
51578;SDS011;47998;53.242;6.386;2024-03-23T13:48:23;8.52;;;1.38;;
51578;SDS011;47998;53.242;6.386;2024-03-23T13:50:59;5.10;;;1.65;;
51578;SDS011;47998;53.242;6.386;2024-03-23T13:53:25;7.88;;;2.03;;
51578;SDS011;47998;53.242;6.386;2024-03-23T13:55:51;4.38;;;1.00;;
51578;SDS011;47998;53.242;6.386;2024-03-23T13:58:18;5.93;;;1.00;;
51578;SDS011;47998;53.242;6.386;2024-03-23T14:00:43;7.65;;;1.27;;
51578;SDS011;47998;53.242;6.386;2024-03-23T14:03:12;10.05;;;2.15;;
51578;SDS011;47998;53.242;6.386;2024-03-23T14:05:39;13.77;;;2.13;;
51578;SDS011;47998;53.242;6.386;2024-03-23T14:08:06;8.00;;;1.63;;
51578;SDS011;47998;53.242;6.386;2024-03-23T14:10:42;9.00;;;1.48;;
51578;SDS011;47998;53.242;6.386;2024-03-23T14:13:08;14.05;;;2.95;;
51578;SDS011;47998;53.242;6.386;2024-03-23T14:15:33;8.27;;;1.75;;
51578;SDS011;47998;53.242;6.386;2024-03-23T14:18:01;6.38;;;1.52;;
51578;SDS011;47998;53.242;6.386;2024-03-23T14:20:28;6.93;;;2.00;;
51578;SDS011;47998;53.242;6.386;2024-03-23T14:22:53;6.90;;;1.70;;
51578;SDS011;47998;53.242;6.386;2024-03-23T14:25:19;6.70;;;1.67;;
51578;SDS011;47998;53.242;6.386;2024-03-23T14:27:47;9.70;;;2.47;;
51578;SDS011;47998;53.242;6.386;2024-03-23T14:30:13;10.38;;;1.90;;
51578;SDS011;47998;53.242;6.386;2024-03-23T14:32:39;5.82;;;0.82;;
51578;SDS011;47998;53.242;6.386;2024-03-23T14:35:05;8.85;;;2.00;;
51578;SDS011;47998;53.242;6.386;2024-03-23T14:37:36;8.70;;;1.63;;
51578;SDS011;47998;53.242;6.386;2024-03-23T14:40:03;14.75;;;2.17;;
51578;SDS011;47998;53.242;6.386;2024-03-23T14:42:32;11.13;;;2.28;;
51578;SDS011;47998;53.242;6.386;2024-03-23T14:44:58;8.75;;;1.27;;
51578;SDS011;47998;53.242;6.386;2024-03-23T14:47:23;9.85;;;1.70;;
51578;SDS011;47998;53.242;6.386;2024-03-23T14:49:49;9.15;;;2.53;;
51578;SDS011;47998;53.242;6.386;2024-03-23T14:52:19;10.07;;;1.85;;
51578;SDS011;47998;53.242;6.386;2024-03-23T14:54:47;7.65;;;2.13;;
51578;SDS011;47998;53.242;6.386;2024-03-23T14:57:13;12.98;;;2.00;;
51578;SDS011;47998;53.242;6.386;2024-03-23T14:59:38;8.23;;;1.30;;
51578;SDS011;47998;53.242;6.386;2024-03-23T15:02:08;12.68;;;1.90;;
51578;SDS011;47998;53.242;6.386;2024-03-23T15:04:34;12.27;;;1.67;;
51578;SDS011;47998;53.242;6.386;2024-03-23T15:07:00;10.57;;;2.08;;
51578;SDS011;47998;53.242;6.386;2024-03-23T15:09:26;14.45;;;2.53;;
51578;SDS011;47998;53.242;6.386;2024-03-23T15:11:52;12.77;;;2.03;;
51578;SDS011;47998;53.242;6.386;2024-03-23T15:14:20;9.13;;;2.13;;
51578;SDS011;47998;53.242;6.386;2024-03-23T15:16:46;11.73;;;2.35;;
51578;SDS011;47998;53.242;6.386;2024-03-23T15:19:13;10.07;;;2.50;;
51578;SDS011;47998;53.242;6.386;2024-03-23T15:21:40;10.93;;;1.70;;
51578;SDS011;47998;53.242;6.386;2024-03-23T15:24:06;8.05;;;2.13;;
51578;SDS011;47998;53.242;6.386;2024-03-23T15:26:36;15.00;;;1.33;;
51578;SDS011;47998;53.242;6.386;2024-03-23T15:29:02;11.75;;;2.75;;
51578;SDS011;47998;53.242;6.386;2024-03-23T15:31:28;5.40;;;1.17;;
51578;SDS011;47998;53.242;6.386;2024-03-23T15:33:57;7.93;;;1.60;;
51578;SDS011;47998;53.242;6.386;2024-03-23T15:36:23;6.25;;;1.10;;
51578;SDS011;47998;53.242;6.386;2024-03-23T15:38:49;7.40;;;1.40;;
51578;SDS011;47998;53.242;6.386;2024-03-23T15:41:15;7.75;;;1.65;;
51578;SDS011;47998;53.242;6.386;2024-03-23T15:43:40;7.47;;;1.55;;
51578;SDS011;47998;53.242;6.386;2024-03-23T15:46:06;11.68;;;2.03;;
51578;SDS011;47998;53.242;6.386;2024-03-23T15:48:33;7.25;;;1.10;;
51578;SDS011;47998;53.242;6.386;2024-03-23T15:51:00;20.17;;;2.80;;
51578;SDS011;47998;53.242;6.386;2024-03-23T15:53:29;10.07;;;1.73;;
51578;SDS011;47998;53.242;6.386;2024-03-23T15:55:55;8.02;;;1.15;;